Mackinac Island, MI

9:25 AM EDT on April 22, 2018 (GMT -0400)
Mackinac Island

Weather History for KMCD - May, 2014

Change the Weather History Date:

Sunday, May 25, 2014

  Actual Average Record
Temperature  
Mean Temperature 56 °F -  
Max Temperature 65 °F 57 °F 74 °F (1978)
Min Temperature 47 °F 41 °F 32 °F (1992)
Degree Days  
Heating Degree Days 9    
Growing Degree Days 6 (Base 50)    
Moisture  
Dew Point 41 °F    
Average Humidity 56    
Maximum Humidity 80    
Minimum Humidity 35    
Precipitation  
Precipitation 0.00 in - - ()
Sea Level Pressure  
Sea Level Pressure 30.07 in    
Wind  
Wind Speed 9 mph (WSW)    
Max Wind Speed 16 mph    
Max Gust Speed 25 mph    
Visibility 10 miles    
Events      
Averages and records for this station are not official NWS values.
T = Trace of Precipitation, MM = Missing Value Source: NWS Daily Summary

Daily Weather History Graph

Daily Weather History Graph

Search for Another Location

Airport or City:

Astronomy

May. 25, 2014 Rise Set
Actual Time 5:56 AM EDT 9:14 PM EDT
Civil Twilight 5:20 AM EDT 9:51 PM EDT
Nautical Twilight 4:33 AM EDT 10:38 PM EDT
Astronomical Twilight 3:33 AM EDT 11:38 PM EDT
Moon 4:12 AM EDT (5/25) 6:05 PM EDT (5/25)
Length of Visible Light 16h 30m
Length of Day
15h 17m
Waning Crescent, 10% of the Moon is Illuminated
May 25
Waning Crescent
May 28
New
Jun 5
First Quarter
Jun 13
Full
Jun 19
Last Quarter

Hourly Weather History & Observations

Time (EDT) Temp. Dew Point Humidity Pressure Visibility Wind Dir Wind Speed Gust Speed Precip Events Conditions
12:19 AM 52.7 °F 42.1 °F 67% 30.12 in 10.0 mi West 5.8 mph - N/A   Clear
12:38 AM 51.4 °F 42.1 °F 70% 30.11 in 10.0 mi WSW 5.8 mph - N/A   Clear
12:58 AM 51.3 °F 42.3 °F 71% 30.10 in 10.0 mi SW 5.8 mph - N/A   Clear
1:19 AM 50.0 °F 41.9 °F 74% 30.10 in 10.0 mi SSW 5.8 mph - N/A   Clear
1:38 AM 50.2 °F 42.6 °F 75% 30.10 in 10.0 mi SSW 6.9 mph - N/A   Clear
2:19 AM 50.9 °F 43.0 °F 74% 30.10 in 10.0 mi SW 9.2 mph - N/A   Clear
2:38 AM 52.3 °F 43.0 °F 70% 30.10 in 10.0 mi WSW 10.4 mph 16.1 mph N/A   Clear
2:58 AM 52.2 °F 41.2 °F 66% 30.11 in 10.0 mi WSW 9.2 mph 17.3 mph N/A   Clear
3:19 AM 50.2 °F 41.4 °F 72% 30.10 in 10.0 mi WSW 9.2 mph - N/A   Clear
3:38 AM 49.6 °F 41.2 °F 73% 30.10 in 10.0 mi SW 9.2 mph - N/A   Clear
3:58 AM 49.3 °F 40.3 °F 71% 30.10 in 10.0 mi WSW 10.4 mph - N/A   Clear
4:18 AM 49.6 °F 40.3 °F 70% 30.10 in 10.0 mi SW 8.1 mph - N/A   Clear
4:38 AM 48.2 °F 40.5 °F 75% 30.10 in 10.0 mi SSW 9.2 mph - N/A   Clear
4:59 AM 49.8 °F 41.0 °F 72% 30.09 in 10.0 mi SSW 9.2 mph - N/A   Clear
5:18 AM 49.5 °F 41.4 °F 74% 30.10 in 10.0 mi SSW 6.9 mph - N/A   Clear
5:38 AM 49.5 °F 41.9 °F 75% 30.10 in 10.0 mi SW 5.8 mph - N/A   Clear
5:59 AM 47.3 °F 41.4 °F 80% 30.10 in 10.0 mi SW 8.1 mph - N/A   Clear
6:18 AM 50.2 °F 41.2 °F 71% 30.11 in 10.0 mi SW 6.9 mph - N/A   Clear
6:39 AM 51.3 °F 41.2 °F 68% 30.11 in 10.0 mi WSW 5.8 mph - N/A   Clear
6:58 AM 51.8 °F 41.5 °F 68% 30.11 in 10.0 mi WSW 5.8 mph - N/A   Clear
7:18 AM 53.2 °F 40.6 °F 62% 30.10 in 10.0 mi SW 8.1 mph - N/A   Clear
7:39 AM 54.7 °F 39.9 °F 58% 30.10 in 10.0 mi SW 11.5 mph 16.1 mph N/A   Clear
7:58 AM 53.8 °F 40.6 °F 61% 30.10 in 10.0 mi WSW 11.5 mph 16.1 mph N/A   Clear
8:18 AM 55.6 °F 40.5 °F 57% 30.10 in 10.0 mi WSW 11.5 mph - N/A   Clear
8:39 AM 58.3 °F 38.7 °F 48% 30.11 in 10.0 mi WSW 11.5 mph 17.3 mph N/A   Clear
8:58 AM 59.4 °F 36.7 °F 43% 30.11 in 10.0 mi West 11.5 mph 17.3 mph N/A   Scattered Clouds
9:19 AM 60.1 °F 38.3 °F 44% 30.10 in 10.0 mi WSW 16.1 mph 24.2 mph N/A   Scattered Clouds
9:39 AM 59.9 °F 38.5 °F 45% 30.10 in 10.0 mi WSW 16.1 mph 23.0 mph N/A   Clear
9:58 AM 59.7 °F 38.7 °F 46% 30.10 in 10.0 mi WSW 15.0 mph 24.2 mph N/A   Clear
10:19 AM 60.3 °F 39.7 °F 47% 30.10 in 10.0 mi WSW 12.7 mph 23.0 mph N/A   Clear
11:19 AM 62.2 °F 39.6 °F 43% 30.10 in 10.0 mi West 13.8 mph - N/A   Clear
11:38 AM 62.6 °F 40.3 °F 44% 30.10 in 10.0 mi West 10.4 mph - N/A   Clear
11:59 AM 62.8 °F 40.1 °F 43% 30.10 in 10.0 mi West 11.5 mph 18.4 mph N/A   Clear
12:19 PM 63.0 °F 39.9 °F 43% 30.10 in 10.0 mi West 8.1 mph - N/A   Clear
12:38 PM 63.3 °F 40.3 °F 43% 30.09 in 10.0 mi West 8.1 mph 16.1 mph N/A   Clear
12:59 PM 62.6 °F 40.6 °F 45% 30.09 in 10.0 mi WSW 9.2 mph - N/A   Clear
1:19 PM 63.0 °F 41.0 °F 45% 30.09 in 10.0 mi West 15.0 mph 18.4 mph N/A   Clear
1:38 PM 63.9 °F 41.9 °F 45% 30.09 in 10.0 mi West 8.1 mph - N/A   Clear
1:59 PM 63.1 °F 41.9 °F 46% 30.08 in 10.0 mi WSW 15.0 mph 21.9 mph N/A   Clear
2:18 PM 64.4 °F 42.8 °F 45% 30.08 in 10.0 mi WSW 12.7 mph 25.3 mph N/A   Clear
2:39 PM 65.3 °F 43.2 °F 45% 30.07 in 10.0 mi WSW 13.8 mph 23.0 mph N/A   Clear
2:59 PM 65.3 °F 43.0 °F 44% 30.07 in 10.0 mi WSW 16.1 mph 25.3 mph N/A   Clear
3:18 PM 65.3 °F 42.8 °F 44% 30.07 in 10.0 mi WSW 16.1 mph 25.3 mph N/A   Clear
3:39 PM 65.5 °F 43.0 °F 44% 30.06 in 10.0 mi WSW 11.5 mph 23.0 mph N/A   Clear
3:58 PM 64.8 °F 43.2 °F 45% 30.06 in 10.0 mi WSW 12.7 mph 19.6 mph N/A   Clear
4:19 PM 64.4 °F 43.3 °F 46% 30.06 in 10.0 mi West 9.2 mph 17.3 mph N/A   Clear
4:39 PM 64.4 °F 43.5 °F 47% 30.05 in 10.0 mi West 11.5 mph 17.3 mph N/A   Clear
4:58 PM 63.7 °F 43.3 °F 48% 30.05 in 10.0 mi West 11.5 mph 16.1 mph N/A   Clear
5:19 PM 63.1 °F 43.7 °F 49% 30.05 in 10.0 mi WSW 5.8 mph - N/A   Clear
5:39 PM 64.0 °F 43.2 °F 47% 30.04 in 10.0 mi West 9.2 mph - N/A   Clear
5:58 PM 62.2 °F 43.0 °F 49% 30.04 in 10.0 mi West 10.4 mph - N/A   Clear
6:19 PM 60.8 °F 42.8 °F 52% 30.04 in 10.0 mi WSW 8.1 mph 17.3 mph N/A   Clear
6:38 PM 60.1 °F 42.4 °F 52% 30.03 in 10.0 mi West 11.5 mph 18.4 mph N/A   Clear
6:59 PM 59.9 °F 42.6 °F 53% 30.02 in 10.0 mi West 10.4 mph 16.1 mph N/A   Clear
7:19 PM 61.3 °F 42.1 °F 49% 30.02 in 10.0 mi West 9.2 mph - N/A   Clear
7:38 PM 61.7 °F 42.6 °F 50% 30.01 in 10.0 mi WSW 6.9 mph - N/A   Clear
7:59 PM 61.0 °F 43.0 °F 52% 30.01 in 10.0 mi WSW 6.9 mph - N/A   Clear
8:19 PM 60.1 °F 43.2 °F 54% 30.01 in 10.0 mi WSW 9.2 mph - N/A   Clear
8:38 PM 61.3 °F 41.0 °F 47% 30.00 in 10.0 mi WSW 10.4 mph 16.1 mph N/A   Clear
8:59 PM 62.1 °F 36.0 °F 38% 30.00 in 10.0 mi SW 10.4 mph 17.3 mph N/A   Clear
9:19 PM 61.9 °F 34.0 °F 35% 30.00 in 10.0 mi SW 11.5 mph 17.3 mph N/A   Clear
9:38 PM 59.9 °F 35.4 °F 40% 30.00 in 10.0 mi SW 9.2 mph 16.1 mph N/A   Clear
9:59 PM 54.9 °F 38.5 °F 54% 30.00 in 10.0 mi WSW 6.9 mph - N/A   Clear
10:19 PM 55.2 °F 39.0 °F 54% 30.00 in 10.0 mi SW 9.2 mph - N/A   Clear
10:39 PM 54.9 °F 39.4 °F 56% 30.00 in 10.0 mi SW 9.2 mph 16.1 mph N/A   Clear
10:59 PM 53.8 °F 40.1 °F 60% 30.00 in 10.0 mi SW 8.1 mph - N/A   Clear
11:18 PM 54.9 °F 41.0 °F 60% 30.00 in 10.0 mi SW 9.2 mph - N/A   Clear
11:39 PM 54.0 °F 41.0 °F 62% 30.00 in 10.0 mi WSW 4.6 mph - N/A   Clear
11:58 PM 52.3 °F 41.0 °F 65% 29.99 in 10.0 mi WSW 10.4 mph - N/A   Clear